Time;durP1;ratioP1;P1;durP2;ratioP2;P2;SDS_P1;SDS_P2;PMS_P1;PMS_P2;Temp;Humidity;BMP_temperature;BMP_pressure;BME280_temperature;BME280_humidity;BME280_pressure;Samples;Min_cycle;Max_cycle;Signal;HPM_P1;HPM_P2
2023/12/21 00:01:00;;;;;;;32.25;18.77;;;;;;;1.30;100.00;62131.75;5108203;28;20196;-78
2023/12/21 00:03:29;;;;;;;25.88;14.98;;;;;;;1.34;100.00;62135.88;5105106;28;20298;-78
2023/12/21 00:05:56;;;;;;;21.60;12.02;;;;;;;1.39;100.00;62142.97;5100543;28;20224;-77
2023/12/21 00:08:23;;;;;;;17.60;11.90;;;;;;;1.39;100.00;62140.47;5088549;28;20210;-78
2023/12/21 00:10:51;;;;;;;22.75;12.60;;;;;;;1.40;100.00;62141.50;5088581;28;20224;-77
2023/12/21 00:13:18;;;;;;;15.48;10.07;;;;;;;1.50;100.00;62151.78;5104417;28;20294;-76
2023/12/21 00:15:46;;;;;;;21.80;13.15;;;;;;;1.53;100.00;62155.38;5087329;28;20411;-77
2023/12/21 00:18:14;;;;;;;22.77;14.63;;;;;;;1.61;100.00;62163.56;5095051;28;20496;-77
2023/12/21 00:20:42;;;;;;;21.20;12.75;;;;;;;1.64;100.00;62169.16;5108684;28;20226;-78
2023/12/21 00:23:09;;;;;;;21.92;12.60;;;;;;;1.67;100.00;62174.75;5104856;28;20223;-77
2023/12/21 00:25:36;;;;;;;23.48;12.85;;;;;;;1.65;100.00;62169.66;5087013;28;20533;-77
2023/12/21 00:28:03;;;;;;;25.33;12.60;;;;;;;1.73;100.00;62175.88;5085095;28;20260;-76
2023/12/21 00:30:29;;;;;;;20.13;11.68;;;;;;;1.75;100.00;62177.94;5088542;28;20449;-78
2023/12/21 00:32:56;;;;;;;19.55;11.35;;;;;;;1.74;100.00;62178.91;5086090;28;20196;-78
2023/12/21 00:35:23;;;;;;;15.52;10.90;;;;;;;1.70;100.00;62172.28;5085765;28;20228;-77
2023/12/21 00:37:52;;;;;;;18.80;11.65;;;;;;;1.70;100.00;62175.31;5089539;28;20204;-77
2023/12/21 00:40:19;;;;;;;19.55;11.57;;;;;;;1.78;100.00;62183.53;5103269;28;20464;-77
2023/12/21 00:42:46;;;;;;;21.33;11.52;;;;;;;1.78;100.00;62180.50;5105686;28;20381;-78
2023/12/21 00:45:13;;;;;;;20.13;12.15;;;;;;;1.78;100.00;62178.50;5103733;28;20227;-76
2023/12/21 00:47:40;;;;;;;23.58;14.23;;;;;;;1.87;100.00;62192.25;5104864;28;20203;-78
2023/12/21 00:50:08;;;;;;;23.55;13.45;;;;;;;1.88;100.00;62193.78;5105231;28;20637;-76
2023/12/21 00:52:35;;;;;;;25.95;15.50;;;;;;;1.89;100.00;62191.78;5102579;28;20204;-77
2023/12/21 00:55:03;;;;;;;28.25;16.30;;;;;;;1.87;100.00;62189.75;5096791;28;20308;-77
2023/12/21 00:57:30;;;;;;;23.75;15.07;;;;;;;1.84;100.00;62184.66;5085187;28;20238;-77
2023/12/21 00:59:57;;;;;;;26.08;15.30;;;;;;;1.82;100.00;62187.63;5089143;28;20240;-77
2023/12/21 01:02:24;;;;;;;27.10;13.90;;;;;;;1.76;100.00;62178.97;5087249;28;20201;-77
2023/12/21 01:04:51;;;;;;;20.17;13.25;;;;;;;1.75;100.00;62177.94;5083937;28;20243;-77
2023/12/21 01:07:18;;;;;;;20.90;14.00;;;;;;;1.74;100.00;62179.44;5104889;28;20208;-77
2023/12/21 01:09:45;;;;;;;19.80;13.68;;;;;;;1.78;100.00;62180.50;5087843;28;20220;-77
2023/12/21 01:12:13;;;;;;;22.23;14.68;;;;;;;1.84;100.00;62192.19;5085375;28;20215;-77
2023/12/21 01:14:41;;;;;;;24.48;14.65;;;;;;;1.86;100.00;62191.22;5083793;28;20229;-76
2023/12/21 01:17:08;;;;;;;26.05;16.15;;;;;;;1.86;100.00;62188.72;5087742;28;20209;-77
2023/12/21 01:19:35;;;;;;;25.27;15.10;;;;;;;1.87;100.00;62192.25;5104015;28;20223;-77
2023/12/21 01:22:02;;;;;;;21.17;14.70;;;;;;;1.87;100.00;62194.75;5104977;28;20191;-78
2023/12/21 01:24:29;;;;;;;27.00;15.55;;;;;;;1.79;100.00;62186.56;5091644;28;20243;-77
2023/12/21 01:26:56;;;;;;;23.35;15.82;;;;;;;1.84;100.00;62186.66;5088230;28;20218;-77
2023/12/21 01:29:24;;;;;;;21.77;15.88;;;;;;;1.80;100.00;62183.06;5085978;28;20405;-78
2023/12/21 01:31:51;;;;;;;25.67;16.00;;;;;;;1.72;100.00;62177.38;5105247;28;20192;-77
2023/12/21 01:34:18;;;;;;;25.50;16.40;;;;;;;1.81;100.00;62183.59;5084799;28;20299;-77
2023/12/21 01:36:45;;;;;;;24.60;14.60;;;;;;;1.78;100.00;62180.50;5085655;28;20200;-78
2023/12/21 01:39:14;;;;;;;28.25;14.80;;;;;;;1.75;100.00;62177.94;5092085;28;20378;-77
2023/12/21 01:41:41;;;;;;;25.20;15.50;;;;;;;1.75;100.00;62177.94;5090395;28;20212;-77
2023/12/21 01:44:08;;;;;;;23.80;14.60;;;;;;;1.72;100.00;62174.34;5099415;28;20228;-77
2023/12/21 01:46:36;;;;;;;23.48;15.50;;;;;;;1.70;100.00;62172.81;5103772;28;20249;-77
2023/12/21 01:49:03;;;;;;;22.40;14.15;;;;;;;1.68;100.00;62173.25;5106375;28;20216;-77
2023/12/21 01:51:29;;;;;;;23.08;11.90;;;;;;;1.63;100.00;62165.09;5091981;28;20204;-77
2023/12/21 01:53:56;;;;;;;21.23;13.45;;;;;;;1.59;100.00;62158.50;5088701;28;20219;-77
2023/12/21 01:56:23;;;;;;;23.67;14.95;;;;;;;1.50;100.00;62154.78;5085689;28;20205;-77
2023/12/21 01:58:50;;;;;;;24.90;15.68;;;;;;;1.44;100.00;62148.63;5104653;28;20281;-76
2023/12/21 02:01:18;;;;;;;20.38;13.80;;;;;;;1.26;100.00;62124.63;5096754;28;20512;-77
2023/12/21 02:03:46;;;;;;;23.45;15.45;;;;;;;1.17;100.00;62116.41;5103979;28;20228;-77
2023/12/21 02:06:13;;;;;;;24.48;15.57;;;;;;;0.95;100.00;62093.34;5105053;28;20330;-77
2023/12/21 02:08:40;;;;;;;27.23;16.95;;;;;;;1.05;100.00;62104.09;5103006;28;20243;-76
2023/12/21 02:11:08;;;;;;;30.30;19.15;;;;;;;1.08;100.00;62112.22;5098994;28;20200;-78
2023/12/21 02:13:35;;;;;;;36.53;21.45;;;;;;;1.12;100.00;62113.28;5104614;28;20381;-77
2023/12/21 02:16:05;;;;;;;31.52;21.20;;;;;;;1.18;100.00;62119.97;5101905;28;20222;-78
2023/12/21 02:18:32;;;;;;;34.67;22.10;;;;;;;1.27;100.00;62128.16;5096192;28;20196;-78
2023/12/21 02:21:01;;;;;;;39.67;24.33;;;;;;;1.12;100.00;62113.28;5084178;28;20231;-77
2023/12/21 02:23:28;;;;;;;39.35;22.15;;;;;;;1.27;100.00;62128.16;5086566;28;20315;-78
2023/12/21 02:25:56;;;;;;;34.15;21.88;;;;;;;1.24;100.00;62128.13;5094535;28;20239;-78
2023/12/21 02:28:23;;;;;;;27.85;19.00;;;;;;;1.25;100.00;62126.63;5088561;28;20203;-78
2023/12/21 02:30:50;;;;;;;30.88;19.52;;;;;;;1.25;100.00;62126.09;5089510;28;20220;-77
2023/12/21 02:33:17;;;;;;;28.73;17.63;;;;;;;1.25;100.00;62131.13;5087949;28;20204;-78
2023/12/21 02:35:44;;;;;;;25.35;18.30;;;;;;;1.27;100.00;62123.16;5089385;28;20216;-78
2023/12/21 02:38:11;;;;;;;31.88;20.02;;;;;;;1.27;100.00;62131.19;5097396;28;20227;-79
2023/12/21 02:40:38;;;;;;;36.53;20.98;;;;;;;1.31;100.00;62134.78;5094619;28;20225;-78
2023/12/21 02:43:07;;;;;;;26.52;18.83;;;;;;;1.39;100.00;62140.47;5108414;28;20206;-77
2023/12/21 02:45:34;;;;;;;29.00;19.50;;;;;;;1.30;100.00;62129.25;5095932;28;20599;-78
2023/12/21 02:48:01;;;;;;;32.65;19.75;;;;;;;1.10;100.00;62111.75;5088661;28;20200;-77
2023/12/21 02:50:27;;;;;;;30.60;19.63;;;;;;;1.19;100.00;62125.50;5087150;28;20247;-79
2023/12/21 02:52:54;;;;;;;32.13;20.27;;;;;;;1.17;100.00;62113.91;5088347;28;20211;-78
2023/12/21 02:55:21;;;;;;;37.38;22.65;;;;;;;1.08;100.00;62106.69;5100516;28;20286;-77
2023/12/21 02:57:48;;;;;;;33.88;21.25;;;;;;;1.17;100.00;62118.44;5088023;28;20196;-77
2023/12/21 03:00:17;;;;;;;34.00;20.13;;;;;;;1.13;100.00;62111.81;5092194;28;20291;-77
2023/12/21 03:02:44;;;;;;;37.13;20.20;;;;;;;1.09;100.00;62107.69;5087576;28;20197;-78
2023/12/21 03:05:11;;;;;;;31.15;21.10;;;;;;;1.11;100.00;62110.28;5095629;28;20227;-78
2023/12/21 03:07:38;;;;;;;35.50;21.40;;;;;;;1.08;100.00;62109.72;5107909;28;20537;-78
2023/12/21 03:10:05;;;;;;;31.17;20.52;;;;;;;1.08;100.00;62114.72;5108830;28;20226;-77
2023/12/21 03:12:32;;;;;;;33.80;20.63;;;;;;;1.02;100.00;62103.03;5107639;28;20192;-77
2023/12/21 03:14:59;;;;;;;33.00;20.48;;;;;;;1.02;100.00;62103.03;5105918;28;20218;-77
2023/12/21 03:17:28;;;;;;;30.63;20.20;;;;;;;0.99;100.00;62100.47;5090198;28;20260;-78
2023/12/21 03:19:55;;;;;;;33.40;19.95;;;;;;;1.05;100.00;62106.63;5109278;28;20223;-79
2023/12/21 03:22:21;;;;;;;37.88;21.67;;;;;;;1.10;100.00;62113.75;5105888;28;20220;-78
2023/12/21 03:24:48;;;;;;;37.45;21.15;;;;;;;1.08;100.00;62109.19;5098299;28;20240;-77
2023/12/21 03:27:17;;;;;;;38.63;21.70;;;;;;;1.14;100.00;62110.31;5100448;28;20205;-77
2023/12/21 03:29:44;;;;;;;31.92;20.77;;;;;;;1.19;100.00;62123.00;5096933;28;20243;-78
2023/12/21 03:32:11;;;;;;;38.45;22.20;;;;;;;1.16;100.00;62117.38;5097461;28;20196;-78
2023/12/21 03:34:40;;;;;;;31.40;20.10;;;;;;;1.14;100.00;62118.34;5105665;28;20265;-78
2023/12/21 03:37:07;;;;;;;34.63;20.65;;;;;;;1.12;100.00;62108.28;5104264;28;20223;-77
2023/12/21 03:39:34;;;;;;;30.83;18.70;;;;;;;1.11;100.00;62112.78;5109767;28;20226;-78
2023/12/21 03:42:02;;;;;;;32.67;19.42;;;;;;;1.21;100.00;62124.53;5100875;28;20393;-78
2023/12/21 03:44:28;;;;;;;34.60;20.05;;;;;;;1.11;100.00;62112.78;5099133;28;20235;-78
2023/12/21 03:46:55;;;;;;;30.60;18.90;;;;;;;1.15;100.00;62111.34;5089420;28;20275;-78
2023/12/21 03:49:24;;;;;;;27.90;18.33;;;;;;;1.14;100.00;62110.84;5087048;28;20228;-79
2023/12/21 03:51:53;;;;;;;27.55;17.75;;;;;;;1.15;100.00;62118.88;5100570;28;20392;-77
2023/12/21 03:54:20;;;;;;;25.77;17.25;;;;;;;1.18;100.00;62121.94;5103502;28;20253;-79
2023/12/21 03:56:46;;;;;;;24.48;16.90;;;;;;;1.22;100.00;62123.56;5088769;28;20205;-78
2023/12/21 03:59:13;;;;;;;25.35;17.55;;;;;;;1.22;100.00;62123.03;5087244;28;20239;-78
2023/12/21 04:01:40;;;;;;;22.83;14.57;;;;;;;1.32;100.00;62133.81;5088636;28;20207;-78
2023/12/21 04:04:07;;;;;;;24.73;15.73;;;;;;;1.33;100.00;62131.81;5086224;28;20216;-77
2023/12/21 04:06:34;;;;;;;22.13;15.10;;;;;;;1.41;100.00;62142.53;5087652;28;20200;-78
2023/12/21 04:09:03;;;;;;;28.05;16.02;;;;;;;1.41;100.00;62142.53;5102055;28;20249;-77
2023/12/21 04:11:30;;;;;;;23.55;15.55;;;;;;;1.37;100.00;62135.91;5086351;28;20201;-79
2023/12/21 04:13:57;;;;;;;22.85;15.68;;;;;;;1.39;100.00;62140.47;5103552;28;20412;-78
2023/12/21 04:16:24;;;;;;;22.35;15.45;;;;;;;1.36;100.00;62134.91;5109180;28;20204;-78
2023/12/21 04:18:51;;;;;;;21.70;13.98;;;;;;;1.42;100.00;62138.53;5094722;28;20213;-77
2023/12/21 04:21:18;;;;;;;18.73;12.80;;;;;;;1.41;100.00;62140.03;5097148;28;20208;-79
2023/12/21 04:23:45;;;;;;;20.55;12.93;;;;;;;1.38;100.00;62139.47;5106024;28;20576;-78
2023/12/21 04:26:19;;;;;;;21.65;13.20;;;;;;;1.43;100.00;62142.06;5107701;28;20227;-78
2023/12/21 04:28:47;;;;;;;15.63;11.82;;;;;;;1.43;100.00;62140.09;5105356;28;20295;-78
2023/12/21 04:31:18;;;;;;;14.95;10.90;;;;;;;1.50;100.00;62149.25;5100099;28;20310;-80
2023/12/21 04:33:46;;;;;;;19.20;12.40;;;;;;;1.50;100.00;62149.25;5095901;28;20200;-78
2023/12/21 04:36:14;;;;;;;16.48;11.45;;;;;;;1.45;100.00;62154.16;5091040;28;20197;-76
2023/12/21 04:38:41;;;;;;;15.50;11.27;;;;;;;1.42;100.00;62144.06;5087752;28;20233;-78
2023/12/21 04:41:08;;;;;;;19.30;12.10;;;;;;;1.45;100.00;62147.13;5089828;28;20207;-78
2023/12/21 04:43:36;;;;;;;18.15;11.57;;;;;;;1.46;100.00;62150.69;5101701;28;20215;-79
2023/12/21 04:46:05;;;;;;;18.38;12.38;;;;;;;1.45;100.00;62149.16;5110445;28;20231;-77
2023/12/21 04:48:32;;;;;;;14.90;12.05;;;;;;;1.46;100.00;62148.19;5107598;28;20196;-77
2023/12/21 04:50:59;;;;;;;17.13;11.88;;;;;;;1.47;100.00;62148.69;5099537;28;20211;-78
2023/12/21 04:53:26;;;;;;;12.93;9.90;;;;;;;1.50;100.00;62154.28;5088177;28;20196;-77
2023/12/21 04:55:53;;;;;;;12.65;10.18;;;;;;;1.52;100.00;62149.31;5087966;28;20291;-78
2023/12/21 04:58:20;;;;;;;17.42;10.60;;;;;;;1.50;100.00;62151.78;5086741;28;20516;-78
2023/12/21 05:00:50;;;;;;;14.02;11.10;;;;;;;1.42;100.00;62146.06;5092151;28;20255;-78
2023/12/21 05:03:19;;;;;;;16.23;12.05;;;;;;;1.39;100.00;62140.47;5087336;28;20201;-78
2023/12/21 05:05:46;;;;;;;12.93;9.98;;;;;;;1.37;100.00;62143.94;5088878;28;20501;-79
2023/12/21 05:08:13;;;;;;;18.15;10.70;;;;;;;1.41;100.00;62145.56;5088779;28;20197;-78
2023/12/21 05:10:40;;;;;;;14.90;10.10;;;;;;;1.45;100.00;62147.13;5092092;28;20221;-77
2023/12/21 05:13:08;;;;;;;17.17;10.05;;;;;;;1.47;100.00;62153.72;5086962;28;20234;-77
2023/12/21 05:15:35;;;;;;;15.55;10.77;;;;;;;1.52;100.00;62154.31;5088108;28;20251;-77
2023/12/21 05:18:04;;;;;;;13.18;10.02;;;;;;;1.55;100.00;62156.91;5085772;28;20203;-78
2023/12/21 05:20:31;;;;;;;17.10;11.10;;;;;;;1.47;100.00;62151.22;5094606;28;20226;-78
2023/12/21 05:22:59;;;;;;;16.58;10.98;;;;;;;1.52;100.00;62153.81;5086554;28;20196;-78
2023/12/21 05:25:26;;;;;;;13.00;9.45;;;;;;;1.46;100.00;62147.66;5086976;28;20235;-78
2023/12/21 05:27:53;;;;;;;14.75;10.15;;;;;;;1.41;100.00;62143.06;5084999;28;20512;-78
2023/12/21 05:30:20;;;;;;;14.77;10.77;;;;;;;1.47;100.00;62149.19;5092364;28;20213;-78
2023/12/21 05:32:47;;;;;;;13.40;10.52;;;;;;;1.48;100.00;62149.72;5087386;28;20197;-78
2023/12/21 05:35:16;;;;;;;15.90;10.10;;;;;;;1.23;100.00;62121.53;5094557;28;20231;-77
2023/12/21 05:37:42;;;;;;;13.10;9.82;;;;;;;1.41;100.00;62140.53;5086218;28;20246;-79
2023/12/21 05:40:12;;;;;;;13.88;9.88;;;;;;;1.40;100.00;62144.03;5087797;28;20216;-78
2023/12/21 05:42:39;;;;;;;11.73;9.25;;;;;;;1.36;100.00;62137.91;5092611;28;20198;-78
2023/12/21 05:45:07;;;;;;;11.32;8.90;;;;;;;1.38;100.00;62141.97;5084903;28;20239;-78
2023/12/21 05:47:34;;;;;;;19.38;10.50;;;;;;;1.40;100.00;62144.53;5085438;28;20380;-78
2023/12/21 05:50:01;;;;;;;17.52;11.93;;;;;;;1.46;100.00;62148.19;5087812;28;20578;-78
2023/12/21 05:52:30;;;;;;;16.35;10.07;;;;;;;1.45;100.00;62146.63;5088709;28;20448;-79
2023/12/21 05:54:57;;;;;;;13.05;9.85;;;;;;;1.36;100.00;62139.91;5100844;28;20234;-78
2023/12/21 05:57:24;;;;;;;12.45;10.07;;;;;;;1.49;100.00;62145.72;5107967;28;20268;-79
2023/12/21 05:59:52;;;;;;;13.98;9.93;;;;;;;1.43;100.00;62142.59;5104704;28;20225;-78
2023/12/21 06:02:19;;;;;;;11.05;8.73;;;;;;;1.43;100.00;62144.59;5093517;28;20489;-78
2023/12/21 06:04:46;;;;;;;15.05;10.55;;;;;;;1.36;100.00;62135.41;5084899;28;20223;-77
2023/12/21 06:07:13;;;;;;;14.50;10.32;;;;;;;1.46;100.00;62145.16;5086400;28;20204;-78
2023/12/21 06:09:42;;;;;;;15.35;10.02;;;;;;;1.48;100.00;62149.72;5084840;28;20252;-78
2023/12/21 06:12:09;;;;;;;17.08;10.98;;;;;;;1.48;100.00;62149.72;5086944;28;20200;-78
2023/12/21 06:14:36;;;;;;;18.45;11.15;;;;;;;1.56;100.00;62158.44;5106398;28;20291;-78
2023/12/21 06:17:03;;;;;;;15.52;11.55;;;;;;;1.27;100.00;62128.16;5105675;28;20200;-78
2023/12/21 06:19:31;;;;;;;19.13;13.02;;;;;;;1.15;100.00;62118.88;5095819;28;20261;-77
2023/12/21 06:21:58;;;;;;;17.67;11.70;;;;;;;1.23;100.00;62124.06;5087470;28;20197;-78
2023/12/21 06:24:25;;;;;;;18.85;12.65;;;;;;;1.24;100.00;62123.09;5085516;28;20232;-78
2023/12/21 06:26:53;;;;;;;21.80;13.32;;;;;;;1.35;100.00;62136.38;5085364;28;20299;-78
2023/12/21 06:29:20;;;;;;;18.23;12.88;;;;;;;1.33;100.00;62134.34;5098170;28;20226;-77
2023/12/21 06:31:47;;;;;;;14.63;9.70;;;;;;;1.35;100.00;62136.38;5102923;28;20207;-77
2023/12/21 06:34:14;;;;;;;17.55;12.23;;;;;;;1.39;100.00;62135.97;5088034;28;20534;-78
2023/12/21 06:36:41;;;;;;;18.83;12.75;;;;;;;1.40;100.00;62136.50;5085079;28;20196;-78
2023/12/21 06:39:08;;;;;;;17.90;12.35;;;;;;;1.46;100.00;62147.66;5092283;28;20216;-78
2023/12/21 06:41:35;;;;;;;18.10;11.73;;;;;;;1.45;100.00;62142.13;5104179;28;20405;-78
2023/12/21 06:44:03;;;;;;;14.80;10.10;;;;;;;1.43;100.00;62145.09;5102213;28;20222;-77
2023/12/21 06:46:30;;;;;;;18.60;11.88;;;;;;;1.52;100.00;62151.81;5107138;28;20270;-77
2023/12/21 06:48:57;;;;;;;20.73;13.52;;;;;;;1.50;100.00;62151.78;5100277;28;20220;-78
2023/12/21 06:51:24;;;;;;;17.48;11.65;;;;;;;1.57;100.00;62156.94;5084073;28;20247;-77
2023/12/21 06:53:52;;;;;;;16.85;12.48;;;;;;;1.62;100.00;62161.56;5085453;28;20257;-77
2023/12/21 06:56:19;;;;;;;17.77;12.73;;;;;;;1.60;100.00;62162.53;5109657;28;20212;-78
2023/12/21 06:58:46;;;;;;;17.55;12.13;;;;;;;1.59;100.00;62156.50;5104125;28;20192;-78
2023/12/21 07:01:14;;;;;;;16.30;11.23;;;;;;;1.45;100.00;62149.16;5105734;28;20196;-77
2023/12/21 07:03:41;;;;;;;16.60;12.13;;;;;;;1.46;100.00;62150.69;5096586;28;20201;-78
2023/12/21 07:06:10;;;;;;;19.27;13.40;;;;;;;1.62;100.00;62162.09;5095642;28;20228;-80
2023/12/21 07:08:37;;;;;;;17.00;11.82;;;;;;;1.62;100.00;62161.56;5101487;28;20200;-78
2023/12/21 07:11:04;;;;;;;15.77;11.70;;;;;;;1.67;100.00;62166.72;5101901;28;20299;-79
2023/12/21 07:13:30;;;;;;;14.80;11.30;;;;;;;1.85;100.00;62190.19;5089823;28;20197;-77
2023/12/21 07:15:58;;;;;;;15.73;10.88;;;;;;;2.14;100.00;62215.47;5088961;28;20217;-77
2023/12/21 07:18:26;;;;;;;15.73;11.15;;;;;;;2.44;100.00;62247.75;5094133;28;20207;-77
2023/12/21 07:20:53;;;;;;;17.42;11.95;;;;;;;2.62;100.00;62269.28;5093054;28;20216;-77
2023/12/21 07:23:20;;;;;;;15.95;10.82;;;;;;;2.76;100.00;62280.63;5089293;28;20227;-76
2023/12/21 07:25:48;;;;;;;17.33;11.20;;;;;;;2.87;100.00;62286.91;5092312;28;20236;-76
2023/12/21 07:28:15;;;;;;;12.13;9.70;;;;;;;2.87;100.00;62294.97;5093566;28;20227;-77
2023/12/21 07:30:42;;;;;;;15.30;11.27;;;;;;;2.93;100.00;62295.59;5086835;28;20220;-78
2023/12/21 07:33:10;;;;;;;14.60;11.20;;;;;;;2.91;100.00;62296.56;5087589;28;20192;-78
2023/12/21 07:35:38;;;;;;;15.63;11.57;;;;;;;2.93;100.00;62303.66;5089057;28;20380;-76
2023/12/21 07:38:06;;;;;;;16.20;11.43;;;;;;;2.96;100.00;62299.19;5087527;28;20272;-77
2023/12/21 07:40:33;;;;;;;16.73;11.52;;;;;;;2.96;100.00;62303.69;5087984;28;20389;-76
2023/12/21 07:43:00;;;;;;;15.15;10.85;;;;;;;3.09;100.00;62320.09;5093355;28;20228;-77
2023/12/21 07:45:27;;;;;;;12.10;9.30;;;;;;;3.08;100.00;62314.03;5088137;28;20232;-75
2023/12/21 07:47:55;;;;;;;14.60;9.57;;;;;;;3.03;100.00;62306.38;5087538;28;20201;-75
2023/12/21 07:50:22;;;;;;;10.82;8.88;;;;;;;3.04;100.00;62312.44;5087620;28;20270;-76
2023/12/21 07:52:56;;;;;;;16.60;10.70;;;;;;;3.08;100.00;62311.53;5089699;28;20216;-75
2023/12/21 07:55:23;;;;;;;14.40;10.20;;;;;;;3.02;100.00;62304.84;5104288;28;20257;-77
2023/12/21 07:57:50;;;;;;;12.40;9.65;;;;;;;2.86;100.00;62291.44;5105551;28;20207;-75
2023/12/21 08:00:17;;;;;;;12.93;9.40;;;;;;;2.92;100.00;62300.09;5108452;28;20528;-77
2023/12/21 08:02:45;;;;;;;11.77;8.73;;;;;;;2.94;100.00;62299.13;5104343;28;20241;-78
2023/12/21 08:05:13;;;;;;;12.25;9.18;;;;;;;2.92;100.00;62300.09;5100172;28;20220;-78
2023/12/21 08:07:40;;;;;;;13.25;9.93;;;;;;;2.92;100.00;62297.06;5103327;28;20219;-78
2023/12/21 08:10:09;;;;;;;11.38;6.60;;;;;;;2.88;100.00;62290.97;5088413;28;20255;-76
2023/12/21 08:12:36;;;;;;;7.78;6.00;;;;;;;2.85;100.00;62287.88;5093039;28;20212;-79
2023/12/21 08:15:04;;;;;;;8.43;6.38;;;;;;;2.83;100.00;62288.34;5094615;28;20462;-78
2023/12/21 08:17:31;;;;;;;6.18;5.25;;;;;;;2.80;100.00;62284.75;5091910;28;20197;-78
2023/12/21 08:19:58;;;;;;;8.00;6.47;;;;;;;2.89;100.00;62294.50;5106558;28;20231;-77
2023/12/21 08:22:25;;;;;;;6.85;6.15;;;;;;;2.95;100.00;62298.16;5101931;28;20203;-78
2023/12/21 08:24:52;;;;;;;6.80;5.75;;;;;;;2.95;100.00;62300.16;5106636;28;20227;-77
2023/12/21 08:27:21;;;;;;;7.05;6.38;;;;;;;2.87;100.00;62289.41;5108857;28;20231;-77
2023/12/21 08:29:48;;;;;;;12.57;6.95;;;;;;;2.89;100.00;62296.50;5098807;28;20228;-76
2023/12/21 08:32:14;;;;;;;9.88;6.95;;;;;;;2.92;100.00;62297.59;5107586;28;20200;-75
2023/12/21 08:34:42;;;;;;;10.43;7.40;;;;;;;3.03;100.00;62305.88;5097745;28;20560;-76
2023/12/21 08:37:09;;;;;;;7.97;5.70;;;;;;;3.14;100.00;62320.19;5090253;28;20242;-77
2023/12/21 08:39:39;;;;;;;6.75;6.07;;;;;;;3.21;100.00;62324.88;5090163;28;20217;-77
2023/12/21 08:42:08;;;;;;;7.88;5.88;;;;;;;3.12;100.00;62320.66;5098097;28;20223;-77
2023/12/21 08:44:37;;;;;;;8.50;6.28;;;;;;;3.15;100.00;62323.22;5086684;28;20579;-76
2023/12/21 08:47:05;;;;;;;7.35;6.18;;;;;;;3.19;100.00;62327.84;5093341;28;20231;-77
2023/12/21 08:49:32;;;;;;;9.32;6.22;;;;;;;3.17;100.00;62320.78;5091491;28;20404;-77
2023/12/21 08:51:59;;;;;;;7.60;4.82;;;;;;;3.19;100.00;62324.84;5099704;28;20279;-78
2023/12/21 08:54:27;;;;;;;6.47;5.68;;;;;;;3.38;100.00;62342.34;5093115;28;20213;-78
2023/12/21 08:56:54;;;;;;;7.43;5.90;;;;;;;3.43;100.00;62347.50;5093932;28;20223;-78
2023/12/21 08:59:21;;;;;;;7.95;6.28;;;;;;;3.67;100.00;62373.66;5096538;28;20407;-78
2023/12/21 09:01:51;;;;;;;8.32;5.80;;;;;;;3.82;100.00;62387.09;5091061;28;20242;-80
2023/12/21 09:04:18;;;;;;;6.68;5.65;;;;;;;3.94;100.00;62408.97;5094153;28;20246;-78
2023/12/21 09:06:45;;;;;;;9.88;6.82;;;;;;;3.86;100.00;62395.72;5097175;28;20228;-79
2023/12/21 09:09:13;;;;;;;6.35;5.70;;;;;;;3.91;100.00;62403.38;5090000;28;20222;-78
2023/12/21 09:11:40;;;;;;;7.10;6.25;;;;;;;3.88;100.00;62395.25;5093648;28;20485;-78
2023/12/21 09:14:07;;;;;;;7.20;5.43;;;;;;;3.76;100.00;62382.91;5097425;28;20242;-78
2023/12/21 09:16:34;;;;;;;7.40;6.65;;;;;;;3.67;100.00;62379.22;5090883;28;20191;-78
2023/12/21 09:19:03;;;;;;;9.52;6.10;;;;;;;3.78;100.00;62384.97;5091107;28;20449;-77
2023/12/21 09:21:30;;;;;;;6.88;5.32;;;;;;;3.73;100.00;62387.41;5094082;28;20215;-78
2023/12/21 09:23:59;;;;;;;6.30;5.13;;;;;;;3.67;100.00;62374.19;5099616;28;20246;-79
2023/12/21 09:26:26;;;;;;;6.35;5.78;;;;;;;3.80;100.00;62387.03;5093649;28;20225;-81
2023/12/21 09:28:53;;;;;;;9.35;6.13;;;;;;;3.95;100.00;62402.47;5092265;28;20220;-80
2023/12/21 09:31:21;;;;;;;8.10;5.45;;;;;;;3.90;100.00;62397.81;5096328;28;20192;-79
2023/12/21 09:33:48;;;;;;;9.45;5.70;;;;;;;3.75;100.00;62384.91;5091175;28;20204;-78
2023/12/21 09:36:19;;;;;;;5.45;4.95;;;;;;;4.09;100.00;62417.38;5093997;28;20205;-79
2023/12/21 09:38:46;;;;;;;7.15;5.47;;;;;;;3.93;100.00;62400.91;5088087;28;20719;-78
2023/12/21 09:41:13;;;;;;;11.93;5.55;;;;;;;3.89;100.00;62398.81;5096370;28;20207;-78
2023/12/21 09:43:40;;;;;;;6.07;5.47;;;;;;;3.84;100.00;62398.69;5095283;28;20221;-79
2023/12/21 09:46:07;;;;;;;4.35;3.60;;;;;;;3.87;100.00;62394.22;5094045;28;20320;-79
2023/12/21 09:48:34;;;;;;;5.53;5.05;;;;;;;3.82;100.00;62387.09;5093479;28;20475;-78
2023/12/21 09:51:02;;;;;;;6.18;5.57;;;;;;;3.97;100.00;62407.53;5092616;28;20215;-78
2023/12/21 09:53:30;;;;;;;6.53;4.68;;;;;;;3.90;100.00;62400.34;5094763;28;20204;-79
2023/12/21 09:55:59;;;;;;;5.97;5.38;;;;;;;3.95;100.00;62402.97;5096609;28;20227;-79
2023/12/21 09:58:26;;;;;;;5.78;5.18;;;;;;;3.83;100.00;62393.13;5090374;28;20196;-78
2023/12/21 10:00:53;;;;;;;7.75;5.70;;;;;;;4.00;100.00;62405.09;5093019;28;20360;-79
2023/12/21 10:03:19;;;;;;;9.05;5.70;;;;;;;4.09;100.00;62419.88;5098822;28;20207;-79
2023/12/21 10:05:48;;;;;;;6.25;4.93;;;;;;;4.11;100.00;62413.88;5094785;28;20227;-78
2023/12/21 10:08:15;;;;;;;10.82;6.43;;;;;;;4.08;100.00;62415.81;5088949;28;20280;-79
2023/12/21 10:10:44;;;;;;;6.20;5.35;;;;;;;4.16;100.00;62424.06;5107449;28;20224;-78
2023/12/21 10:13:11;;;;;;;7.47;5.90;;;;;;;4.21;100.00;62434.75;5101003;28;20271;-80
2023/12/21 10:15:40;;;;;;;8.35;5.82;;;;;;;4.26;100.00;62434.34;5101489;28;20229;-79
2023/12/21 10:18:07;;;;;;;6.60;4.95;;;;;;;4.26;100.00;62429.31;5091575;28;20238;-78
2023/12/21 10:20:35;;;;;;;7.10;6.35;;;;;;;4.24;100.00;62432.28;5087460;28;20252;-79
2023/12/21 10:23:03;;;;;;;8.38;5.45;;;;;;;4.40;100.00;62448.75;5088601;28;20213;-78
2023/12/21 10:25:29;;;;;;;6.53;5.90;;;;;;;4.49;100.00;62456.00;5107702;28;20275;-79
2023/12/21 10:27:58;;;;;;;10.73;5.97;;;;;;;4.59;100.00;62468.31;5100811;28;20232;-78
2023/12/21 10:30:25;;;;;;;9.68;6.20;;;;;;;4.50;100.00;62459.56;5100852;28;20227;-79
2023/12/21 10:32:53;;;;;;;8.77;6.55;;;;;;;4.58;100.00;62469.81;5086022;28;20384;-79
2023/12/21 10:35:20;;;;;;;8.95;6.57;;;;;;;4.44;100.00;62450.34;5088102;28;20273;-79
2023/12/21 10:37:48;;;;;;;9.27;6.43;;;;;;;4.30;100.00;62438.47;5093532;28;20216;-80
2023/12/21 10:40:15;;;;;;;8.63;6.32;;;;;;;4.32;100.00;62443.56;5092203;28;20221;-78
2023/12/21 10:42:44;;;;;;;8.00;6.57;;;;;;;4.29;100.00;62440.47;5097887;28;20272;-78
2023/12/21 10:45:15;;;;;;;8.55;5.80;;;;;;;4.43;100.00;62451.84;5105054;28;20223;-77
2023/12/21 10:47:46;;;;;;;7.93;5.75;;;;;;;4.47;100.00;62459.00;5097011;28;20329;-78
2023/12/21 10:50:16;;;;;;;6.90;5.32;;;;;;;4.40;100.00;62449.25;5112510;28;20216;-78
2023/12/21 10:52:43;;;;;;;7.13;5.35;;;;;;;4.53;100.00;62465.19;5107519;28;20204;-79
2023/12/21 10:55:10;;;;;;;6.68;5.93;;;;;;;4.47;98.80;62458.47;5095267;28;20230;-79
2023/12/21 10:57:38;;;;;;;8.13;5.28;;;;;;;4.59;100.00;62473.38;5110665;28;20484;-78
2023/12/21 11:00:11;;;;;;;6.32;5.43;;;;;;;4.63;100.00;62474.94;5111472;28;20220;-78
2023/12/21 11:02:40;;;;;;;9.02;7.22;;;;;;;4.78;100.00;62487.34;5103467;28;20211;-79
2023/12/21 11:05:08;;;;;;;5.80;4.85;;;;;;;4.85;100.00;62499.63;5089055;28;20225;-79
2023/12/21 11:07:35;;;;;;;5.50;4.68;;;;;;;5.04;100.00;62519.19;5089555;28;20611;-77
2023/12/21 11:10:02;;;;;;;6.68;4.93;;;;;;;4.97;100.00;62512.47;5090514;28;20313;-79
2023/12/21 11:12:29;;;;;;;5.18;4.68;;;;;;;4.82;96.52;62491.97;5088140;28;20211;-79
2023/12/21 11:14:56;;;;;;;5.57;5.05;;;;;;;4.79;97.26;62490.91;5106734;28;20283;-79
2023/12/21 11:17:23;;;;;;;5.68;5.07;;;;;;;4.84;97.07;62496.56;5109879;28;20192;-78
2023/12/21 11:19:51;;;;;;;4.80;4.40;;;;;;;4.89;98.67;62504.25;5090954;28;20244;-81
2023/12/21 11:22:19;;;;;;;10.35;4.82;;;;;;;4.91;100.00;62498.72;5092030;28;20200;-80